This is the latest recevied weather packets stored in our database for station/object S51UL-6. If no packets are shown the sender has not sent any weather packets the latest 10 day(s).
| Time | Temp. | Humidity | Pressure | Rain* | Wind** | Luminosity | Snow |
|---|---|---|---|---|---|---|---|
| 1787819579 | 28.89° C | 61% | 1017.6 hPa | 0 mm | - | - | - |
| 1787818979 | 29.44° C | 60% | 1017.8 hPa | 0 mm | - | - | - |
| 1787818679 | 30° C | 62% | 1017.8 hPa | 0 mm | - | - | - |
| 1787818379 | 30° C | 63% | 1017.8 hPa | 0 mm | - | - | - |
| 1787817479 | 27.78° C | 74% | 1017.9 hPa | 0 mm | - | - | - |
| 1787816579 | 24.44° C | 80% | 1017.9 hPa | 0 mm | - | - | - |
| 1787816279 | 23.89° C | 84% | 1017.9 hPa | 0 mm | - | - | - |
| 1787815979 | 22.78° C | 85% | 1018.1 hPa | 0 mm | - | - | - |
| 1787815679 | 22.22° C | 86% | 1018 hPa | 0 mm | - | - | - |
| 1787815379 | 21.67° C | 86% | 1018.1 hPa | 0 mm | - | - | - |
| 1787814779 | 21.11° C | 88% | 1018.3 hPa | 0 mm | - | - | - |
| 1787813880 | 20° C | 89% | 1018.2 hPa | 0 mm | - | - | - |
| 1787813280 | 19.44° C | 90% | 1018.3 hPa | 0 mm | - | - | - |
| 1787812980 | 19.44° C | 91% | 1018.3 hPa | 0 mm | - | - | - |
| 1787812680 | 18.89° C | 91% | 1018.3 hPa | 0 mm | - | - | - |
| 1787812380 | 18.89° C | 90% | 1018.3 hPa | 0 mm | - | - | - |
| 1787812080 | 18.33° C | 90% | 1018.3 hPa | 0 mm | - | - | - |
| 1787811480 | 17.78° C | 91% | 1018.2 hPa | 0 mm | - | - | - |
| 1787811180 | 17.78° C | 91% | 1018.2 hPa | 0 mm | - | - | - |
| 1787810582 | 17.22° C | 90% | 1018 hPa | 0 mm | - | - | - |
| 1787810280 | 17.22° C | 90% | 1018.1 hPa | 0 mm | - | - | - |
| 1787809380 | 16.67° C | 90% | 1018.3 hPa | 0 mm | - | - | - |
| 1787809080 | 16.67° C | 90% | 1018.2 hPa | 0 mm | - | - | - |
| 1787808780 | 16.11° C | 90% | 1018.1 hPa | 0 mm | - | - | - |
| 1787808181 | 15.56° C | 90% | 1018.3 hPa | 0 mm | - | - | - |
* Rain latest hour (hover to see other rain measurements)
** Current wind speed in m/s (hover to see current wind gust speed)